sensor_id;sensor_type;location;lat;lon;timestamp;temperature;humidity
68977;SHT31;56029;52.568;13.588;2022-07-01T00:01:34;20.17;87.49
68977;SHT31;56029;52.568;13.588;2022-07-01T00:03:59;20.13;87.55
68977;SHT31;56029;52.568;13.588;2022-07-01T00:06:25;20.13;87.64
68977;SHT31;56029;52.568;13.588;2022-07-01T00:08:50;20.13;87.66
68977;SHT31;56029;52.568;13.588;2022-07-01T00:11:16;20.14;87.89
68977;SHT31;56029;52.568;13.588;2022-07-01T00:13:41;20.09;87.82
68977;SHT31;56029;52.568;13.588;2022-07-01T00:16:07;20.06;87.98
68977;SHT31;56029;52.568;13.588;2022-07-01T00:18:33;20.03;87.95
68977;SHT31;56029;52.568;13.588;2022-07-01T00:20:58;20.05;87.91
68977;SHT31;56029;52.568;13.588;2022-07-01T00:23:27;20.03;88.16
68977;SHT31;56029;52.568;13.588;2022-07-01T00:25:52;19.96;88.10
68977;SHT31;56029;52.568;13.588;2022-07-01T00:28:18;19.97;88.32
68977;SHT31;56029;52.568;13.588;2022-07-01T00:30:43;19.93;88.54
68977;SHT31;56029;52.568;13.588;2022-07-01T00:33:09;19.89;88.70
68977;SHT31;56029;52.568;13.588;2022-07-01T00:35:35;19.85;88.83
68977;SHT31;56029;52.568;13.588;2022-07-01T00:38:00;19.86;88.77
68977;SHT31;56029;52.568;13.588;2022-07-01T00:40:26;19.81;89.08
68977;SHT31;56029;52.568;13.588;2022-07-01T00:42:51;19.75;89.14
68977;SHT31;56029;52.568;13.588;2022-07-01T00:45:17;19.68;88.96
68977;SHT31;56029;52.568;13.588;2022-07-01T00:47:44;19.58;89.50
68977;SHT31;56029;52.568;13.588;2022-07-01T00:50:12;19.54;89.52
68977;SHT31;56029;52.568;13.588;2022-07-01T00:52:39;19.48;89.10
68977;SHT31;56029;52.568;13.588;2022-07-01T00:55:07;19.51;89.34
68977;SHT31;56029;52.568;13.588;2022-07-01T00:57:35;19.34;89.24
68977;SHT31;56029;52.568;13.588;2022-07-01T01:00:07;19.17;89.60
68977;SHT31;56029;52.568;13.588;2022-07-01T01:02:35;19.03;90.31
68977;SHT31;56029;52.568;13.588;2022-07-01T01:05:02;19.03;90.51
68977;SHT31;56029;52.568;13.588;2022-07-01T01:07:28;19.07;90.74
68977;SHT31;56029;52.568;13.588;2022-07-01T01:09:54;19.08;90.35
68977;SHT31;56029;52.568;13.588;2022-07-01T01:12:20;19.00;90.54
68977;SHT31;56029;52.568;13.588;2022-07-01T01:14:47;18.94;90.73
68977;SHT31;56029;52.568;13.588;2022-07-01T01:17:15;18.94;90.64
68977;SHT31;56029;52.568;13.588;2022-07-01T01:19:41;18.92;90.51
68977;SHT31;56029;52.568;13.588;2022-07-01T01:22:07;18.93;90.65
68977;SHT31;56029;52.568;13.588;2022-07-01T01:24:34;18.93;90.73
68977;SHT31;56029;52.568;13.588;2022-07-01T01:27:00;18.92;90.71
68977;SHT31;56029;52.568;13.588;2022-07-01T01:29:26;18.96;90.63
68977;SHT31;56029;52.568;13.588;2022-07-01T01:31:51;18.93;90.95
68977;SHT31;56029;52.568;13.588;2022-07-01T01:34:17;18.86;90.85
68977;SHT31;56029;52.568;13.588;2022-07-01T01:36:42;18.76;91.52
68977;SHT31;56029;52.568;13.588;2022-07-01T01:39:08;18.76;91.49
68977;SHT31;56029;52.568;13.588;2022-07-01T01:41:38;18.73;91.67
68977;SHT31;56029;52.568;13.588;2022-07-01T01:44:04;18.74;91.86
68977;SHT31;56029;52.568;13.588;2022-07-01T01:46:29;18.77;91.95
68977;SHT31;56029;52.568;13.588;2022-07-01T01:48:56;18.77;91.76
68977;SHT31;56029;52.568;13.588;2022-07-01T01:51:21;18.79;91.57
68977;SHT31;56029;52.568;13.588;2022-07-01T01:53:47;18.80;91.28
68977;SHT31;56029;52.568;13.588;2022-07-01T01:56:13;18.77;91.33
68977;SHT31;56029;52.568;13.588;2022-07-01T01:58:38;18.72;91.32
68977;SHT31;56029;52.568;13.588;2022-07-01T02:01:14;18.67;91.47
68977;SHT31;56029;52.568;13.588;2022-07-01T02:03:40;18.66;91.28
68977;SHT31;56029;52.568;13.588;2022-07-01T02:06:07;18.66;91.87
68977;SHT31;56029;52.568;13.588;2022-07-01T02:08:38;18.62;91.97
68977;SHT31;56029;52.568;13.588;2022-07-01T02:11:04;18.60;92.06
68977;SHT31;56029;52.568;13.588;2022-07-01T02:13:30;18.59;92.34
68977;SHT31;56029;52.568;13.588;2022-07-01T02:15:56;18.59;92.04
68977;SHT31;56029;52.568;13.588;2022-07-01T02:18:22;18.60;91.90
68977;SHT31;56029;52.568;13.588;2022-07-01T02:20:48;18.62;91.46
68977;SHT31;56029;52.568;13.588;2022-07-01T02:23:14;18.60;91.51
68977;SHT31;56029;52.568;13.588;2022-07-01T02:25:40;18.56;91.74
68977;SHT31;56029;52.568;13.588;2022-07-01T02:28:06;18.56;92.08
68977;SHT31;56029;52.568;13.588;2022-07-01T02:30:33;18.57;92.30
68977;SHT31;56029;52.568;13.588;2022-07-01T02:33:03;18.57;92.28
68977;SHT31;56029;52.568;13.588;2022-07-01T02:35:29;18.59;92.26
68977;SHT31;56029;52.568;13.588;2022-07-01T02:37:55;18.60;92.67
68977;SHT31;56029;52.568;13.588;2022-07-01T02:40:21;18.63;93.08
68977;SHT31;56029;52.568;13.588;2022-07-01T02:42:46;18.63;93.10
68977;SHT31;56029;52.568;13.588;2022-07-01T02:45:12;18.66;93.18
68977;SHT31;56029;52.568;13.588;2022-07-01T02:47:39;18.67;93.45
68977;SHT31;56029;52.568;13.588;2022-07-01T02:50:06;18.66;93.44
68977;SHT31;56029;52.568;13.588;2022-07-01T02:52:36;18.70;93.32
68977;SHT31;56029;52.568;13.588;2022-07-01T02:55:03;18.77;94.04
68977;SHT31;56029;52.568;13.588;2022-07-01T02:57:29;18.83;94.33
68977;SHT31;56029;52.568;13.588;2022-07-01T02:59:55;18.93;94.46
68977;SHT31;56029;52.568;13.588;2022-07-01T03:02:21;19.03;94.34
68977;SHT31;56029;52.568;13.588;2022-07-01T03:04:48;19.10;94.26
68977;SHT31;56029;52.568;13.588;2022-07-01T03:07:15;19.11;94.41
68977;SHT31;56029;52.568;13.588;2022-07-01T03:09:41;19.15;94.16
68977;SHT31;56029;52.568;13.588;2022-07-01T03:12:07;19.18;93.94
68977;SHT31;56029;52.568;13.588;2022-07-01T03:14:59;19.27;94.00
68977;SHT31;56029;52.568;13.588;2022-07-01T03:17:26;19.34;94.03
68977;SHT31;56029;52.568;13.588;2022-07-01T03:19:53;19.42;93.90
68977;SHT31;56029;52.568;13.588;2022-07-01T03:22:20;19.52;93.85
68977;SHT31;56029;52.568;13.588;2022-07-01T03:24:47;19.66;93.27
68977;SHT31;56029;52.568;13.588;2022-07-01T03:27:13;19.73;92.90
68977;SHT31;56029;52.568;13.588;2022-07-01T03:29:39;19.76;92.43
68977;SHT31;56029;52.568;13.588;2022-07-01T03:32:04;20.06;91.89
68977;SHT31;56029;52.568;13.588;2022-07-01T03:34:31;20.40;90.82
68977;SHT31;56029;52.568;13.588;2022-07-01T03:36:56;20.77;89.40
68977;SHT31;56029;52.568;13.588;2022-07-01T03:39:22;21.05;88.49
68977;SHT31;56029;52.568;13.588;2022-07-01T03:41:47;21.29;87.52
68977;SHT31;56029;52.568;13.588;2022-07-01T03:44:13;21.50;86.69
68977;SHT31;56029;52.568;13.588;2022-07-01T03:46:39;21.73;85.77
68977;SHT31;56029;52.568;13.588;2022-07-01T03:49:04;21.93;85.22
68977;SHT31;56029;52.568;13.588;2022-07-01T03:51:30;22.22;84.37
68977;SHT31;56029;52.568;13.588;2022-07-01T03:53:55;22.49;83.18
68977;SHT31;56029;52.568;13.588;2022-07-01T03:56:39;22.72;82.43
68977;SHT31;56029;52.568;13.588;2022-07-01T03:59:05;22.83;81.85
68977;SHT31;56029;52.568;13.588;2022-07-01T04:01:30;22.89;81.65
68977;SHT31;56029;52.568;13.588;2022-07-01T04:03:56;22.96;81.47
68977;SHT31;56029;52.568;13.588;2022-07-01T04:06:22;23.15;81.05
68977;SHT31;56029;52.568;13.588;2022-07-01T04:08:48;23.41;80.20
68977;SHT31;56029;52.568;13.588;2022-07-01T04:11:15;23.63;79.20
68977;SHT31;56029;52.568;13.588;2022-07-01T04:13:41;23.72;79.02
68977;SHT31;56029;52.568;13.588;2022-07-01T04:16:12;23.96;78.25
68977;SHT31;56029;52.568;13.588;2022-07-01T04:18:38;24.23;77.44
68977;SHT31;56029;52.568;13.588;2022-07-01T04:21:04;24.44;76.76
68977;SHT31;56029;52.568;13.588;2022-07-01T04:23:48;24.44;76.83
68977;SHT31;56029;52.568;13.588;2022-07-01T04:26:13;24.64;76.40
68977;SHT31;56029;52.568;13.588;2022-07-01T04:28:39;24.74;76.14
68977;SHT31;56029;52.568;13.588;2022-07-01T04:31:05;24.92;75.59
68977;SHT31;56029;52.568;13.588;2022-07-01T04:33:30;25.30;74.53
68977;SHT31;56029;52.568;13.588;2022-07-01T04:35:56;25.46;73.85
68977;SHT31;56029;52.568;13.588;2022-07-01T04:38:21;25.35;74.32
68977;SHT31;56029;52.568;13.588;2022-07-01T04:40:47;24.98;75.52
68977;SHT31;56029;52.568;13.588;2022-07-01T04:43:31;25.27;74.82
68977;SHT31;56029;52.568;13.588;2022-07-01T04:45:56;25.54;73.74
68977;SHT31;56029;52.568;13.588;2022-07-01T04:48:22;25.83;73.03
68977;SHT31;56029;52.568;13.588;2022-07-01T04:50:47;25.92;72.41
68977;SHT31;56029;52.568;13.588;2022-07-01T04:53:14;26.17;71.82
68977;SHT31;56029;52.568;13.588;2022-07-01T04:55:39;26.22;71.78
68977;SHT31;56029;52.568;13.588;2022-07-01T04:58:05;26.24;71.98
68977;SHT31;56029;52.568;13.588;2022-07-01T05:00:31;26.59;70.73
68977;SHT31;56029;52.568;13.588;2022-07-01T05:02:56;26.57;70.79
68977;SHT31;56029;52.568;13.588;2022-07-01T05:05:22;26.33;71.33
68977;SHT31;56029;52.568;13.588;2022-07-01T05:07:47;26.55;71.02
68977;SHT31;56029;52.568;13.588;2022-07-01T05:10:13;26.50;71.35
68977;SHT31;56029;52.568;13.588;2022-07-01T05:12:38;26.43;71.33
68977;SHT31;56029;52.568;13.588;2022-07-01T05:15:04;26.49;71.53
68977;SHT31;56029;52.568;13.588;2022-07-01T05:17:30;26.32;71.94
68977;SHT31;56029;52.568;13.588;2022-07-01T05:20:14;26.01;73.00
68977;SHT31;56029;52.568;13.588;2022-07-01T05:22:59;25.53;74.58
68977;SHT31;56029;52.568;13.588;2022-07-01T05:25:25;25.49;75.21
68977;SHT31;56029;52.568;13.588;2022-07-01T05:27:50;25.66;74.55
68977;SHT31;56029;52.568;13.588;2022-07-01T05:30:15;25.85;74.17
68977;SHT31;56029;52.568;13.588;2022-07-01T05:32:41;25.94;74.37
68977;SHT31;56029;52.568;13.588;2022-07-01T05:35:07;25.84;74.86
68977;SHT31;56029;52.568;13.588;2022-07-01T05:37:32;25.66;75.45
68977;SHT31;56029;52.568;13.588;2022-07-01T05:39:58;25.47;75.72
68977;SHT31;56029;52.568;13.588;2022-07-01T05:42:23;25.42;76.28
68977;SHT31;56029;52.568;13.588;2022-07-01T05:44:49;25.33;76.33
68977;SHT31;56029;52.568;13.588;2022-07-01T05:47:15;25.30;76.54
68977;SHT31;56029;52.568;13.588;2022-07-01T05:49:41;25.16;76.68
68977;SHT31;56029;52.568;13.588;2022-07-01T05:52:06;25.27;76.95
68977;SHT31;56029;52.568;13.588;2022-07-01T05:54:32;25.27;76.59
68977;SHT31;56029;52.568;13.588;2022-07-01T05:56:57;25.30;76.45
68977;SHT31;56029;52.568;13.588;2022-07-01T05:59:23;25.36;76.70
68977;SHT31;56029;52.568;13.588;2022-07-01T06:01:49;25.44;75.45
68977;SHT31;56029;52.568;13.588;2022-07-01T06:04:16;25.57;75.26
68977;SHT31;56029;52.568;13.588;2022-07-01T06:06:42;25.90;74.98
68977;SHT31;56029;52.568;13.588;2022-07-01T06:09:07;26.17;73.90
68977;SHT31;56029;52.568;13.588;2022-07-01T06:11:33;26.28;71.63
68977;SHT31;56029;52.568;13.588;2022-07-01T06:13:58;26.41;71.96
68977;SHT31;56029;52.568;13.588;2022-07-01T06:16:24;26.50;72.32
68977;SHT31;56029;52.568;13.588;2022-07-01T06:18:49;26.49;71.72
68977;SHT31;56029;52.568;13.588;2022-07-01T06:21:15;26.22;72.03
68977;SHT31;56029;52.568;13.588;2022-07-01T06:23:41;26.09;72.40
68977;SHT31;56029;52.568;13.588;2022-07-01T06:26:06;26.05;72.54
68977;SHT31;56029;52.568;13.588;2022-07-01T06:28:32;25.98;72.41
68977;SHT31;56029;52.568;13.588;2022-07-01T06:30:58;26.01;73.66
68977;SHT31;56029;52.568;13.588;2022-07-01T06:33:23;26.01;74.34
68977;SHT31;56029;52.568;13.588;2022-07-01T06:35:49;26.08;73.61
68977;SHT31;56029;52.568;13.588;2022-07-01T06:38:15;26.14;72.91
68977;SHT31;56029;52.568;13.588;2022-07-01T06:40:40;26.21;71.76
68977;SHT31;56029;52.568;13.588;2022-07-01T06:43:05;26.09;72.06
68977;SHT31;56029;52.568;13.588;2022-07-01T06:45:31;26.17;72.23
68977;SHT31;56029;52.568;13.588;2022-07-01T06:47:57;26.21;72.30
68977;SHT31;56029;52.568;13.588;2022-07-01T06:50:22;26.52;71.38
68977;SHT31;56029;52.568;13.588;2022-07-01T06:52:48;26.75;70.93
68977;SHT31;56029;52.568;13.588;2022-07-01T06:55:13;26.20;71.18
68977;SHT31;56029;52.568;13.588;2022-07-01T06:57:39;25.95;72.24
68977;SHT31;56029;52.568;13.588;2022-07-01T07:00:05;25.94;72.20
68977;SHT31;56029;52.568;13.588;2022-07-01T07:02:31;26.11;72.52
68977;SHT31;56029;52.568;13.588;2022-07-01T07:04:56;26.08;71.82
68977;SHT31;56029;52.568;13.588;2022-07-01T07:07:24;26.05;71.25
68977;SHT31;56029;52.568;13.588;2022-07-01T07:09:49;26.06;71.89
68977;SHT31;56029;52.568;13.588;2022-07-01T07:12:15;26.25;71.56
68977;SHT31;56029;52.568;13.588;2022-07-01T07:14:41;26.18;71.02
68977;SHT31;56029;52.568;13.588;2022-07-01T07:17:06;25.87;71.76
68977;SHT31;56029;52.568;13.588;2022-07-01T07:19:32;25.36;74.79
68977;SHT31;56029;52.568;13.588;2022-07-01T07:21:57;25.04;75.70
68977;SHT31;56029;52.568;13.588;2022-07-01T07:24:23;25.02;75.85
68977;SHT31;56029;52.568;13.588;2022-07-01T07:26:48;25.29;75.87
68977;SHT31;56029;52.568;13.588;2022-07-01T07:29:14;25.35;75.39
68977;SHT31;56029;52.568;13.588;2022-07-01T07:31:39;25.32;75.59
68977;SHT31;56029;52.568;13.588;2022-07-01T07:34:05;25.33;75.05
68977;SHT31;56029;52.568;13.588;2022-07-01T07:36:30;25.26;75.34
68977;SHT31;56029;52.568;13.588;2022-07-01T07:38:57;25.22;75.43
68977;SHT31;56029;52.568;13.588;2022-07-01T07:41:23;25.19;75.01
68977;SHT31;56029;52.568;13.588;2022-07-01T07:43:49;25.37;74.77
68977;SHT31;56029;52.568;13.588;2022-07-01T07:46:15;25.57;74.92
68977;SHT31;56029;52.568;13.588;2022-07-01T07:48:40;25.43;73.98
68977;SHT31;56029;52.568;13.588;2022-07-01T07:51:09;25.69;73.82
68977;SHT31;56029;52.568;13.588;2022-07-01T07:53:35;25.77;72.53
68977;SHT31;56029;52.568;13.588;2022-07-01T07:56:00;25.70;72.43
68977;SHT31;56029;52.568;13.588;2022-07-01T07:58:26;25.91;72.07
68977;SHT31;56029;52.568;13.588;2022-07-01T08:00:51;26.01;71.58
68977;SHT31;56029;52.568;13.588;2022-07-01T08:03:17;26.00;71.55
68977;SHT31;56029;52.568;13.588;2022-07-01T08:05:43;26.04;71.52
68977;SHT31;56029;52.568;13.588;2022-07-01T08:08:08;26.32;70.37
68977;SHT31;56029;52.568;13.588;2022-07-01T08:10:34;26.31;69.92
68977;SHT31;56029;52.568;13.588;2022-07-01T08:12:59;26.31;69.34
68977;SHT31;56029;52.568;13.588;2022-07-01T08:15:30;25.97;69.64
68977;SHT31;56029;52.568;13.588;2022-07-01T08:17:55;26.21;69.96
68977;SHT31;56029;52.568;13.588;2022-07-01T08:20:21;26.43;69.24
68977;SHT31;56029;52.568;13.588;2022-07-01T08:22:47;26.22;68.53
68977;SHT31;56029;52.568;13.588;2022-07-01T08:25:13;26.46;69.66
68977;SHT31;56029;52.568;13.588;2022-07-01T08:27:39;26.64;66.81
68977;SHT31;56029;52.568;13.588;2022-07-01T08:30:06;26.64;67.34
68977;SHT31;56029;52.568;13.588;2022-07-01T08:32:32;26.60;67.66
68977;SHT31;56029;52.568;13.588;2022-07-01T08:34:57;26.87;67.34
68977;SHT31;56029;52.568;13.588;2022-07-01T08:37:23;26.79;67.10
68977;SHT31;56029;52.568;13.588;2022-07-01T08:39:48;27.07;66.85
68977;SHT31;56029;52.568;13.588;2022-07-01T08:42:14;27.10;66.69
68977;SHT31;56029;52.568;13.588;2022-07-01T08:44:40;27.34;65.43
68977;SHT31;56029;52.568;13.588;2022-07-01T08:47:11;27.66;63.73
68977;SHT31;56029;52.568;13.588;2022-07-01T08:49:36;27.92;62.81
68977;SHT31;56029;52.568;13.588;2022-07-01T08:52:02;27.75;62.08
68977;SHT31;56029;52.568;13.588;2022-07-01T08:54:27;27.58;61.71
68977;SHT31;56029;52.568;13.588;2022-07-01T08:56:53;27.30;62.44
68977;SHT31;56029;52.568;13.588;2022-07-01T08:59:26;27.34;61.85
68977;SHT31;56029;52.568;13.588;2022-07-01T09:02:00;27.49;62.12
68977;SHT31;56029;52.568;13.588;2022-07-01T09:04:27;27.55;62.08
68977;SHT31;56029;52.568;13.588;2022-07-01T09:07:00;27.45;62.09
68977;SHT31;56029;52.568;13.588;2022-07-01T09:09:26;26.93;62.25
68977;SHT31;56029;52.568;13.588;2022-07-01T09:11:53;27.03;62.95
68977;SHT31;56029;52.568;13.588;2022-07-01T09:14:27;27.24;61.63
68977;SHT31;56029;52.568;13.588;2022-07-01T09:16:58;27.01;62.11
68977;SHT31;56029;52.568;13.588;2022-07-01T09:19:25;26.82;62.95
68977;SHT31;56029;52.568;13.588;2022-07-01T09:21:53;26.70;63.11
68977;SHT31;56029;52.568;13.588;2022-07-01T09:26:56;26.69;63.70
68977;SHT31;56029;52.568;13.588;2022-07-01T09:29:31;26.73;63.87
68977;SHT31;56029;52.568;13.588;2022-07-01T09:31:59;26.76;63.26
68977;SHT31;56029;52.568;13.588;2022-07-01T09:34:25;27.10;63.12
68977;SHT31;56029;52.568;13.588;2022-07-01T09:36:57;27.39;62.58
68977;SHT31;56029;52.568;13.588;2022-07-01T09:39:23;27.27;61.42
68977;SHT31;56029;52.568;13.588;2022-07-01T09:41:49;27.12;62.64
68977;SHT31;56029;52.568;13.588;2022-07-01T09:44:15;26.93;62.82
68977;SHT31;56029;52.568;13.588;2022-07-01T09:46:54;26.41;64.18
68977;SHT31;56029;52.568;13.588;2022-07-01T09:49:20;26.36;64.77
68977;SHT31;56029;52.568;13.588;2022-07-01T09:51:47;25.87;65.47
68977;SHT31;56029;52.568;13.588;2022-07-01T09:54:14;25.53;66.54
68977;SHT31;56029;52.568;13.588;2022-07-01T09:56:40;24.75;69.46
68977;SHT31;56029;52.568;13.588;2022-07-01T09:59:06;24.31;70.64
68977;SHT31;56029;52.568;13.588;2022-07-01T10:01:32;23.76;71.83
68977;SHT31;56029;52.568;13.588;2022-07-01T10:03:59;23.18;73.94
68977;SHT31;56029;52.568;13.588;2022-07-01T10:09:50;23.34;73.01
68977;SHT31;56029;52.568;13.588;2022-07-01T10:12:25;23.18;72.87
68977;SHT31;56029;52.568;13.588;2022-07-01T10:14:56;22.55;74.35
68977;SHT31;56029;52.568;13.588;2022-07-01T10:17:32;22.56;74.13
68977;SHT31;56029;52.568;13.588;2022-07-01T10:20:11;22.24;75.15
68977;SHT31;56029;52.568;13.588;2022-07-01T10:22:38;22.73;74.25
68977;SHT31;56029;52.568;13.588;2022-07-01T10:28:21;22.36;74.02
68977;SHT31;56029;52.568;13.588;2022-07-01T10:31:01;21.90;75.53
68977;SHT31;56029;52.568;13.588;2022-07-01T10:36:08;21.80;75.82
68977;SHT31;56029;52.568;13.588;2022-07-01T10:38:34;21.78;74.78
68977;SHT31;56029;52.568;13.588;2022-07-01T10:41:00;21.97;74.56
68977;SHT31;56029;52.568;13.588;2022-07-01T10:43:36;21.84;74.54
68977;SHT31;56029;52.568;13.588;2022-07-01T10:46:03;22.38;73.89
68977;SHT31;56029;52.568;13.588;2022-07-01T10:48:33;22.21;73.55
68977;SHT31;56029;52.568;13.588;2022-07-01T10:50:59;22.19;74.16
68977;SHT31;56029;52.568;13.588;2022-07-01T10:53:44;22.06;73.81
68977;SHT31;56029;52.568;13.588;2022-07-01T10:56:16;22.09;73.90
68977;SHT31;56029;52.568;13.588;2022-07-01T10:58:41;21.97;74.60
68977;SHT31;56029;52.568;13.588;2022-07-01T11:01:08;21.75;75.30
68977;SHT31;56029;52.568;13.588;2022-07-01T11:03:35;21.53;75.12
68977;SHT31;56029;52.568;13.588;2022-07-01T11:06:02;21.02;76.60
68977;SHT31;56029;52.568;13.588;2022-07-01T11:08:28;20.74;77.85
68977;SHT31;56029;52.568;13.588;2022-07-01T11:11:00;20.94;77.73
68977;SHT31;56029;52.568;13.588;2022-07-01T11:13:27;21.02;77.55
68977;SHT31;56029;52.568;13.588;2022-07-01T11:15:53;20.78;78.61
68977;SHT31;56029;52.568;13.588;2022-07-01T11:18:19;20.69;78.92
68977;SHT31;56029;52.568;13.588;2022-07-01T11:20:44;20.82;78.17
68977;SHT31;56029;52.568;13.588;2022-07-01T11:23:11;20.38;79.31
68977;SHT31;56029;52.568;13.588;2022-07-01T11:25:36;20.17;80.41
68977;SHT31;56029;52.568;13.588;2022-07-01T11:28:02;20.09;80.09
68977;SHT31;56029;52.568;13.588;2022-07-01T11:30:28;19.99;80.50
68977;SHT31;56029;52.568;13.588;2022-07-01T11:32:56;19.97;80.51
68977;SHT31;56029;52.568;13.588;2022-07-01T11:35:25;19.89;81.32
68977;SHT31;56029;52.568;13.588;2022-07-01T11:38:18;19.39;82.38
68977;SHT31;56029;52.568;13.588;2022-07-01T11:41:05;19.20;82.90
68977;SHT31;56029;52.568;13.588;2022-07-01T11:43:34;19.04;83.93
68977;SHT31;56029;52.568;13.588;2022-07-01T11:46:01;19.10;83.76
68977;SHT31;56029;52.568;13.588;2022-07-01T11:48:29;19.21;83.30
68977;SHT31;56029;52.568;13.588;2022-07-01T11:50:54;18.89;83.98
68977;SHT31;56029;52.568;13.588;2022-07-01T11:53:20;18.86;84.50
68977;SHT31;56029;52.568;13.588;2022-07-01T11:55:47;18.80;84.40
68977;SHT31;56029;52.568;13.588;2022-07-01T11:58:13;18.76;84.72
68977;SHT31;56029;52.568;13.588;2022-07-01T12:00:38;18.99;84.22
68977;SHT31;56029;52.568;13.588;2022-07-01T12:03:04;19.07;83.88
68977;SHT31;56029;52.568;13.588;2022-07-01T12:05:31;19.04;83.42
68977;SHT31;56029;52.568;13.588;2022-07-01T12:07:57;19.18;83.49
68977;SHT31;56029;52.568;13.588;2022-07-01T12:10:26;19.18;83.51
68977;SHT31;56029;52.568;13.588;2022-07-01T12:12:53;19.30;82.74
68977;SHT31;56029;52.568;13.588;2022-07-01T12:15:20;19.69;82.25
68977;SHT31;56029;52.568;13.588;2022-07-01T12:17:46;20.54;80.25
68977;SHT31;56029;52.568;13.588;2022-07-01T12:20:11;20.98;77.90
68977;SHT31;56029;52.568;13.588;2022-07-01T12:22:37;20.78;78.54
68977;SHT31;56029;52.568;13.588;2022-07-01T12:25:07;20.43;79.52
68977;SHT31;56029;52.568;13.588;2022-07-01T12:27:35;20.71;79.16
68977;SHT31;56029;52.568;13.588;2022-07-01T12:30:03;20.63;79.28
68977;SHT31;56029;52.568;13.588;2022-07-01T12:32:29;20.33;79.80
68977;SHT31;56029;52.568;13.588;2022-07-01T12:35:00;20.21;80.14
68977;SHT31;56029;52.568;13.588;2022-07-01T12:37:30;19.83;81.76
68977;SHT31;56029;52.568;13.588;2022-07-01T12:40:05;19.97;81.15
68977;SHT31;56029;52.568;13.588;2022-07-01T12:42:36;20.20;80.94
68977;SHT31;56029;52.568;13.588;2022-07-01T12:45:07;20.33;80.04
68977;SHT31;56029;52.568;13.588;2022-07-01T12:47:36;20.23;80.50
68977;SHT31;56029;52.568;13.588;2022-07-01T12:52:38;19.79;82.13
68977;SHT31;56029;52.568;13.588;2022-07-01T12:55:20;20.13;80.71
68977;SHT31;56029;52.568;13.588;2022-07-01T12:57:56;20.17;80.52
68977;SHT31;56029;52.568;13.588;2022-07-01T13:00:25;19.92;81.49
68977;SHT31;56029;52.568;13.588;2022-07-01T13:02:54;19.86;81.16
68977;SHT31;56029;52.568;13.588;2022-07-01T13:05:20;19.89;80.94
68977;SHT31;56029;52.568;13.588;2022-07-01T13:07:45;19.69;82.25
68977;SHT31;56029;52.568;13.588;2022-07-01T13:10:13;19.73;82.18
68977;SHT31;56029;52.568;13.588;2022-07-01T13:12:39;19.61;82.41
68977;SHT31;56029;52.568;13.588;2022-07-01T13:15:04;19.24;83.22
68977;SHT31;56029;52.568;13.588;2022-07-01T13:17:30;19.18;83.97
68977;SHT31;56029;52.568;13.588;2022-07-01T13:19:56;19.25;83.52
68977;SHT31;56029;52.568;13.588;2022-07-01T13:22:21;19.18;83.95
68977;SHT31;56029;52.568;13.588;2022-07-01T13:24:47;19.11;84.14
68977;SHT31;56029;52.568;13.588;2022-07-01T13:27:12;19.18;84.12
68977;SHT31;56029;52.568;13.588;2022-07-01T13:29:38;19.30;83.35
68977;SHT31;56029;52.568;13.588;2022-07-01T13:32:04;18.97;83.79
68977;SHT31;56029;52.568;13.588;2022-07-01T13:34:30;18.82;84.41
68977;SHT31;56029;52.568;13.588;2022-07-01T13:36:56;18.77;84.62
68977;SHT31;56029;52.568;13.588;2022-07-01T13:39:22;18.69;84.95
68977;SHT31;56029;52.568;13.588;2022-07-01T13:41:48;18.80;84.83
68977;SHT31;56029;52.568;13.588;2022-07-01T13:44:14;18.72;84.91
68977;SHT31;56029;52.568;13.588;2022-07-01T13:46:40;18.60;85.61
68977;SHT31;56029;52.568;13.588;2022-07-01T13:49:06;18.41;86.00
68977;SHT31;56029;52.568;13.588;2022-07-01T13:51:32;18.41;85.94
68977;SHT31;56029;52.568;13.588;2022-07-01T13:53:58;18.32;86.10
68977;SHT31;56029;52.568;13.588;2022-07-01T13:56:25;18.36;85.91
68977;SHT31;56029;52.568;13.588;2022-07-01T13:58:51;18.26;85.68
68977;SHT31;56029;52.568;13.588;2022-07-01T14:01:18;18.29;85.09
68977;SHT31;56029;52.568;13.588;2022-07-01T14:03:44;18.32;85.83
68977;SHT31;56029;52.568;13.588;2022-07-01T14:06:10;18.32;85.37
68977;SHT31;56029;52.568;13.588;2022-07-01T14:08:35;18.35;85.00
68977;SHT31;56029;52.568;13.588;2022-07-01T14:11:01;18.19;85.25
68977;SHT31;56029;52.568;13.588;2022-07-01T14:13:26;17.91;85.78
68977;SHT31;56029;52.568;13.588;2022-07-01T14:15:52;17.95;85.70
68977;SHT31;56029;52.568;13.588;2022-07-01T14:18:19;18.14;85.47
68977;SHT31;56029;52.568;13.588;2022-07-01T14:20:45;18.29;84.55
68977;SHT31;56029;52.568;13.588;2022-07-01T14:23:11;18.28;84.38
68977;SHT31;56029;52.568;13.588;2022-07-01T14:25:36;18.14;84.81
68977;SHT31;56029;52.568;13.588;2022-07-01T14:28:02;18.05;84.86
68977;SHT31;56029;52.568;13.588;2022-07-01T14:30:28;17.95;85.00
68977;SHT31;56029;52.568;13.588;2022-07-01T14:32:54;17.98;85.11
68977;SHT31;56029;52.568;13.588;2022-07-01T14:35:19;17.98;85.49
68977;SHT31;56029;52.568;13.588;2022-07-01T14:37:45;17.93;85.67
68977;SHT31;56029;52.568;13.588;2022-07-01T14:40:11;17.77;86.33
68977;SHT31;56029;52.568;13.588;2022-07-01T14:42:37;17.73;86.60
68977;SHT31;56029;52.568;13.588;2022-07-01T14:45:03;17.71;86.52
68977;SHT31;56029;52.568;13.588;2022-07-01T14:47:29;17.80;86.47
68977;SHT31;56029;52.568;13.588;2022-07-01T14:49:55;17.78;86.63
68977;SHT31;56029;52.568;13.588;2022-07-01T14:52:22;17.73;86.58
68977;SHT31;56029;52.568;13.588;2022-07-01T14:54:48;17.73;86.78
68977;SHT31;56029;52.568;13.588;2022-07-01T14:57:15;17.66;86.68
68977;SHT31;56029;52.568;13.588;2022-07-01T14:59:41;17.57;87.12
68977;SHT31;56029;52.568;13.588;2022-07-01T15:02:06;17.54;87.36
68977;SHT31;56029;52.568;13.588;2022-07-01T15:04:32;17.39;88.57
68977;SHT31;56029;52.568;13.588;2022-07-01T15:06:58;17.43;89.30
68977;SHT31;56029;52.568;13.588;2022-07-01T15:09:24;17.43;89.13
68977;SHT31;56029;52.568;13.588;2022-07-01T15:11:51;17.51;89.78
68977;SHT31;56029;52.568;13.588;2022-07-01T15:14:17;17.40;89.79
68977;SHT31;56029;52.568;13.588;2022-07-01T15:16:43;17.32;89.65
68977;SHT31;56029;52.568;13.588;2022-07-01T15:19:09;17.29;89.67
68977;SHT31;56029;52.568;13.588;2022-07-01T15:21:35;17.19;88.92
68977;SHT31;56029;52.568;13.588;2022-07-01T15:24:00;17.23;88.94
68977;SHT31;56029;52.568;13.588;2022-07-01T15:26:26;17.12;89.20
68977;SHT31;56029;52.568;13.588;2022-07-01T15:28:51;17.09;89.19